createdAt,value
2023-03-17T00:00:30.687Z,63.45
2023-03-17T00:01:30.534Z,63.42
2023-03-17T00:02:30.571Z,63.75
2023-03-17T00:03:30.556Z,63.64
2023-03-17T00:04:30.525Z,63.51
2023-03-17T00:05:30.513Z,63.97
2023-03-17T00:06:30.529Z,66.07
2023-03-17T00:07:30.500Z,66.74
2023-03-17T00:08:30.486Z,65.36
2023-03-17T00:09:30.521Z,63.93
2023-03-17T00:10:30.640Z,69.76
2023-03-17T00:11:30.472Z,67.33
2023-03-17T00:12:30.540Z,67.91
2023-03-17T00:13:30.473Z,67.65
2023-03-17T00:14:30.466Z,63.50
2023-03-17T00:15:30.439Z,65.02
2023-03-17T00:16:30.435Z,67.61
2023-03-17T00:17:30.417Z,66.67
2023-03-17T00:18:30.436Z,63.60
2023-03-17T00:19:30.454Z,64.68
2023-03-17T00:20:30.657Z,65.35
2023-03-17T00:21:30.421Z,66.08
2023-03-17T00:22:30.404Z,63.44
2023-03-17T00:23:30.380Z,65.51
2023-03-17T00:24:30.452Z,64.03
2023-03-17T00:25:30.376Z,63.39
2023-03-17T00:26:30.376Z,65.45
2023-03-17T00:27:30.395Z,63.43
2023-03-17T00:28:30.361Z,68.58
2023-03-17T00:29:30.363Z,64.10
2023-03-17T00:30:30.587Z,65.83
2023-03-17T00:31:30.410Z,66.67
2023-03-17T00:32:30.366Z,66.31
2023-03-17T00:33:30.325Z,64.62
2023-03-17T00:34:30.361Z,63.99
2023-03-17T00:35:30.388Z,63.86
2023-03-17T00:36:30.310Z,64.03
2023-03-17T00:37:30.286Z,63.82
2023-03-17T00:38:30.314Z,64.00
2023-03-17T00:39:30.287Z,63.91
2023-03-17T00:40:30.541Z,65.05
2023-03-17T00:41:30.285Z,63.82
2023-03-17T00:42:30.275Z,63.98
2023-03-17T00:43:30.756Z,65.44
2023-03-17T00:44:31.240Z,66.02
2023-03-17T00:45:30.230Z,63.69
2023-03-17T00:46:30.277Z,64.16
2023-03-17T00:47:30.232Z,63.94
2023-03-17T00:48:30.268Z,63.83
2023-03-17T00:49:30.194Z,64.07
2023-03-17T00:50:30.437Z,64.30
2023-03-17T00:51:30.227Z,63.79
2023-03-17T00:52:30.190Z,63.89
2023-03-17T00:53:30.202Z,63.55
2023-03-17T00:54:31.222Z,63.80
2023-03-17T00:55:30.209Z,63.86
2023-03-17T00:56:30.184Z,63.61
2023-03-17T00:57:30.188Z,63.95
2023-03-17T00:58:30.159Z,65.11
2023-03-17T00:59:30.161Z,65.34
2023-03-17T01:00:30.480Z,63.94
2023-03-17T01:01:30.149Z,64.29
2023-03-17T01:02:30.116Z,64.32
2023-03-17T01:03:30.138Z,64.15
2023-03-17T01:04:30.137Z,64.32
2023-03-17T01:05:30.148Z,64.00
2023-03-17T01:06:30.087Z,63.73
2023-03-17T01:07:30.117Z,64.00
2023-03-17T01:08:30.204Z,64.88
2023-03-17T01:09:30.088Z,65.39
2023-03-17T01:10:30.247Z,63.86
2023-03-17T01:11:30.103Z,64.01
2023-03-17T01:12:30.102Z,63.81
2023-03-17T01:13:30.055Z,65.98
2023-03-17T01:14:30.058Z,64.27
2023-03-17T01:15:30.056Z,63.96
2023-03-17T01:16:30.141Z,63.87
2023-03-17T01:17:30.054Z,68.60
2023-03-17T01:18:30.183Z,64.04
2023-03-17T01:19:30.037Z,64.16
2023-03-17T01:20:30.189Z,66.95
2023-03-17T01:21:30.023Z,64.31
2023-03-17T01:22:30.037Z,64.80
2023-03-17T01:23:30.050Z,64.95
2023-03-17T01:24:30.905Z,68.14
2023-03-17T01:25:29.985Z,63.85
2023-03-17T01:26:31.050Z,66.33
2023-03-17T01:27:30.007Z,69.67
2023-03-17T01:28:29.997Z,64.28
2023-03-17T01:29:29.981Z,67.36
2023-03-17T01:30:30.166Z,65.79
2023-03-17T01:31:30.041Z,65.64
2023-03-17T01:32:29.986Z,63.54
2023-03-17T01:33:29.953Z,66.59
2023-03-17T01:34:29.975Z,64.10
2023-03-17T01:35:29.994Z,63.47
2023-03-17T01:36:29.973Z,63.65
2023-03-17T01:37:29.904Z,63.76
2023-03-17T01:38:29.931Z,63.77
2023-03-17T01:39:29.923Z,63.78
2023-03-17T01:40:30.115Z,63.79
2023-03-17T01:41:29.908Z,63.69
2023-03-17T01:42:30.891Z,63.88
2023-03-17T01:43:29.893Z,65.97
2023-03-17T01:44:29.852Z,66.76
2023-03-17T01:45:29.880Z,63.85
2023-03-17T01:46:29.879Z,63.81
2023-03-17T01:47:29.832Z,63.73
2023-03-17T01:48:29.845Z,63.86
2023-03-17T01:49:29.944Z,64.05
2023-03-17T01:50:30.203Z,63.71
2023-03-17T01:51:29.835Z,63.80
2023-03-17T01:52:29.836Z,63.83
2023-03-17T01:53:29.840Z,66.15
2023-03-17T01:54:29.830Z,63.95
2023-03-17T01:55:29.815Z,66.24
2023-03-17T01:56:29.793Z,63.71
2023-03-17T01:57:29.806Z,64.02
2023-03-17T01:58:29.788Z,65.00
2023-03-17T01:59:29.819Z,64.04
2023-03-17T02:00:30.109Z,66.23
2023-03-17T02:01:29.764Z,65.20
2023-03-17T02:02:29.744Z,63.82
2023-03-17T02:03:30.328Z,67.60
2023-03-17T02:04:29.816Z,63.80
2023-03-17T02:05:29.868Z,63.80
2023-03-17T02:06:29.719Z,63.41
2023-03-17T02:07:29.770Z,63.62
2023-03-17T02:08:29.720Z,64.21
2023-03-17T02:09:29.727Z,64.03
2023-03-17T02:10:30.011Z,63.72
2023-03-17T02:11:29.671Z,63.73
2023-03-17T02:12:29.710Z,64.40
2023-03-17T02:13:30.276Z,65.18
2023-03-17T02:14:29.681Z,68.21
2023-03-17T02:15:29.660Z,63.74
2023-03-17T02:16:29.690Z,63.89
2023-03-17T02:17:29.639Z,63.75
2023-03-17T02:18:29.659Z,63.97
2023-03-17T02:19:29.638Z,65.21
2023-03-17T02:20:29.977Z,65.20
2023-03-17T02:21:29.632Z,68.94
2023-03-17T02:22:29.631Z,64.11
2023-03-17T02:23:29.687Z,63.95
2023-03-17T02:24:29.599Z,67.09
2023-03-17T02:25:29.607Z,64.05
2023-03-17T02:26:29.581Z,64.04
2023-03-17T02:27:29.595Z,65.72
2023-03-17T02:28:29.582Z,64.73
2023-03-17T02:29:29.697Z,63.75
2023-03-17T02:30:29.893Z,63.74
2023-03-17T02:31:29.550Z,68.43
2023-03-17T02:32:29.608Z,63.76
2023-03-17T02:33:29.599Z,65.47
2023-03-17T02:34:29.562Z,64.00
2023-03-17T02:35:29.529Z,66.12
2023-03-17T02:36:29.585Z,66.06
2023-03-17T02:37:29.533Z,63.78
2023-03-17T02:38:29.537Z,66.29
2023-03-17T02:39:29.529Z,63.72
2023-03-17T02:40:29.869Z,65.75
2023-03-17T02:41:29.501Z,63.82
2023-03-17T02:42:29.493Z,63.66
2023-03-17T02:43:29.485Z,64.27
2023-03-17T02:44:29.503Z,64.59
2023-03-17T02:45:29.518Z,67.25
2023-03-17T02:46:29.489Z,64.08
2023-03-17T02:47:29.494Z,64.10
2023-03-17T02:48:29.438Z,64.39
2023-03-17T02:49:29.451Z,66.09
2023-03-17T02:50:29.793Z,66.55
2023-03-17T02:51:29.451Z,64.38
2023-03-17T02:52:29.427Z,64.60
2023-03-17T02:53:29.461Z,66.09
2023-03-17T02:54:29.548Z,68.81
2023-03-17T02:55:29.395Z,64.00
2023-03-17T02:56:29.426Z,63.85
2023-03-17T02:57:29.434Z,64.31
2023-03-17T02:58:29.377Z,64.33
2023-03-17T02:59:29.383Z,66.45
2023-03-17T03:00:29.658Z,64.64
2023-03-17T03:01:29.520Z,64.57
2023-03-17T03:02:29.395Z,66.18
2023-03-17T03:03:29.349Z,68.36
2023-03-17T03:04:29.381Z,64.82
2023-03-17T03:05:29.353Z,66.08
2023-03-17T03:06:29.319Z,70.30
2023-03-17T03:07:29.324Z,65.77
2023-03-17T03:08:29.336Z,65.76
2023-03-17T03:09:29.309Z,65.90
2023-03-17T03:10:29.616Z,64.40
2023-03-17T03:11:29.351Z,64.80
2023-03-17T03:12:29.283Z,67.61
2023-03-17T03:13:29.316Z,64.36
2023-03-17T03:14:29.276Z,66.89
2023-03-17T03:15:29.343Z,66.08
2023-03-17T03:16:29.333Z,70.15
2023-03-17T03:17:29.261Z,65.07
2023-03-17T03:18:29.288Z,69.90
2023-03-17T03:19:29.230Z,67.51
2023-03-17T03:20:29.510Z,66.65
2023-03-17T03:21:29.243Z,64.80
2023-03-17T03:22:29.224Z,64.57
2023-03-17T03:23:29.207Z,65.02
2023-03-17T03:24:29.236Z,66.37
2023-03-17T03:25:29.226Z,68.16
2023-03-17T03:26:29.211Z,64.96
2023-03-17T03:27:29.175Z,66.55
2023-03-17T03:28:29.187Z,65.92
2023-03-17T03:29:29.214Z,65.89
2023-03-17T03:30:29.507Z,64.81
2023-03-17T03:31:29.242Z,68.44
2023-03-17T03:32:29.201Z,65.29
2023-03-17T03:33:29.207Z,65.41
2023-03-17T03:34:29.198Z,66.76
2023-03-17T03:35:29.139Z,67.14
2023-03-17T03:36:29.169Z,65.19
2023-03-17T03:37:29.136Z,70.12
2023-03-17T03:38:29.116Z,65.74
2023-03-17T03:39:29.095Z,67.55
2023-03-17T03:40:29.436Z,66.52
2023-03-17T03:41:29.113Z,65.82
2023-03-17T03:42:29.085Z,65.81
2023-03-17T03:43:29.917Z,64.55
2023-03-17T03:44:29.067Z,66.68
2023-03-17T03:45:29.064Z,66.35
2023-03-17T03:46:29.158Z,68.35
2023-03-17T03:47:29.103Z,67.89
2023-03-17T03:48:29.087Z,68.07
2023-03-17T03:49:29.033Z,66.50
2023-03-17T03:50:29.421Z,66.29
2023-03-17T03:51:29.018Z,67.74
2023-03-17T03:52:29.052Z,69.20
2023-03-17T03:53:29.034Z,68.08
2023-03-17T03:54:29.013Z,72.28
2023-03-17T03:55:29.002Z,66.78
2023-03-17T03:56:29.000Z,67.11
2023-03-17T03:57:28.999Z,72.33
2023-03-17T03:58:29.017Z,64.94
2023-03-17T03:59:29.035Z,67.54
2023-03-17T04:00:29.240Z,68.82
2023-03-17T04:01:28.966Z,68.31
2023-03-17T04:02:28.955Z,72.10
2023-03-17T04:03:28.969Z,66.90
2023-03-17T04:04:28.962Z,64.26
2023-03-17T04:05:28.946Z,64.62
2023-03-17T04:06:28.956Z,67.08
2023-03-17T04:07:28.923Z,65.74
2023-03-17T04:08:28.962Z,65.69
2023-03-17T04:09:28.939Z,68.66
2023-03-17T04:10:29.321Z,67.23
2023-03-17T04:11:28.942Z,64.76
2023-03-17T04:12:28.889Z,69.44
2023-03-17T04:13:28.885Z,69.70
2023-03-17T04:14:28.892Z,72.38
2023-03-17T04:15:28.895Z,68.19
2023-03-17T04:16:28.907Z,70.73
2023-03-17T04:17:28.873Z,70.46
2023-03-17T04:18:28.857Z,68.88
2023-03-17T04:19:28.854Z,66.36
2023-03-17T04:20:29.238Z,71.85
2023-03-17T04:21:28.842Z,69.18
2023-03-17T04:22:28.830Z,68.09
2023-03-17T04:23:28.980Z,66.03
2023-03-17T04:24:28.824Z,75.86
2023-03-17T04:25:28.822Z,70.91
2023-03-17T04:26:28.817Z,69.22
2023-03-17T04:27:28.806Z,68.68
2023-03-17T04:28:28.775Z,70.73
2023-03-17T04:29:28.791Z,70.08
2023-03-17T04:30:29.254Z,69.10
2023-03-17T04:31:28.835Z,69.02
2023-03-17T04:32:28.796Z,66.40
2023-03-17T04:33:28.778Z,69.48
2023-03-17T04:34:28.759Z,69.07
2023-03-17T04:35:28.755Z,73.02
2023-03-17T04:36:28.745Z,71.09
2023-03-17T04:37:28.755Z,67.50
2023-03-17T04:38:28.724Z,69.38
2023-03-17T04:39:28.758Z,71.67
2023-03-17T04:40:28.906Z,69.27
2023-03-17T04:41:28.721Z,69.03
2023-03-17T04:42:28.867Z,72.14
2023-03-17T04:43:28.781Z,71.23
2023-03-17T04:44:28.676Z,71.51
2023-03-17T04:45:28.747Z,71.99
2023-03-17T04:46:28.689Z,66.13
2023-03-17T04:47:28.727Z,71.19
2023-03-17T04:48:28.712Z,70.37
2023-03-17T04:49:28.659Z,70.15
2023-03-17T04:50:28.788Z,71.58
2023-03-17T04:51:28.662Z,70.90
2023-03-17T04:52:28.645Z,70.78
2023-03-17T04:53:28.736Z,67.79
2023-03-17T04:54:28.651Z,72.22
2023-03-17T04:55:28.641Z,71.31
2023-03-17T04:56:31.201Z,70.69
2023-03-17T04:57:28.664Z,70.26
2023-03-17T04:58:31.026Z,68.91
2023-03-17T04:59:29.732Z,67.99
2023-03-17T05:00:28.756Z,72.94
2023-03-17T05:01:28.660Z,71.67
2023-03-17T05:02:28.617Z,71.15
2023-03-17T05:03:28.952Z,70.83
2023-03-17T05:04:31.999Z,71.81
2023-03-17T05:05:29.590Z,69.68
2023-03-17T05:06:28.652Z,70.32
2023-03-17T05:07:28.580Z,70.58
2023-03-17T05:08:28.616Z,70.55
2023-03-17T05:09:28.605Z,70.74
2023-03-17T05:10:28.956Z,70.89
2023-03-17T05:11:28.555Z,69.10
2023-03-17T05:12:28.656Z,71.53
2023-03-17T05:13:28.533Z,70.85
2023-03-17T05:14:28.528Z,72.81
2023-03-17T05:15:28.585Z,69.21
2023-03-17T05:16:28.543Z,71.02
2023-03-17T05:17:28.509Z,71.23
2023-03-17T05:18:28.498Z,70.81
2023-03-17T05:19:28.524Z,70.14
2023-03-17T05:20:29.018Z,70.77
2023-03-17T05:21:28.509Z,70.43
2023-03-17T05:22:28.514Z,70.95
2023-03-17T05:23:28.504Z,73.23
2023-03-17T05:24:28.508Z,70.63
2023-03-17T05:25:28.492Z,69.85
2023-03-17T05:26:28.470Z,73.52
2023-03-17T05:27:28.469Z,72.67
2023-03-17T05:28:28.501Z,73.03
2023-03-17T05:29:28.477Z,72.74
2023-03-17T05:30:28.547Z,70.47
2023-03-17T05:31:28.488Z,73.28
2023-03-17T05:32:29.470Z,76.02
2023-03-17T05:33:28.435Z,72.32
2023-03-17T05:34:28.438Z,73.05
2023-03-17T05:35:28.425Z,69.78
2023-03-17T05:36:28.424Z,73.36
2023-03-17T05:37:28.429Z,72.34
2023-03-17T05:38:28.407Z,73.94
2023-03-17T05:39:28.475Z,75.18
2023-03-17T05:40:29.663Z,73.48
2023-03-17T05:41:28.405Z,72.77
2023-03-17T05:42:28.405Z,73.09
2023-03-17T05:43:28.448Z,73.27
2023-03-17T05:44:28.458Z,73.54
2023-03-17T05:45:28.397Z,72.52
2023-03-17T05:46:28.433Z,75.21
2023-03-17T05:47:28.366Z,72.72
2023-03-17T05:48:28.367Z,75.17
2023-03-17T05:49:28.457Z,72.20
2023-03-17T05:50:28.434Z,73.01
2023-03-17T05:51:28.317Z,74.50
2023-03-17T05:52:28.328Z,76.41
2023-03-17T05:53:28.346Z,73.39
2023-03-17T05:54:28.307Z,75.22
2023-03-17T05:55:29.279Z,71.87
2023-03-17T05:56:28.323Z,70.99
2023-03-17T05:57:28.297Z,73.15
2023-03-17T05:58:28.287Z,73.87
2023-03-17T05:59:28.327Z,70.92
2023-03-17T06:00:29.297Z,76.62
2023-03-17T06:01:28.429Z,70.13
2023-03-17T06:02:28.294Z,72.34
2023-03-17T06:03:28.299Z,72.68
2023-03-17T06:04:28.259Z,73.20
2023-03-17T06:05:28.280Z,74.68
2023-03-17T06:06:28.264Z,72.31
2023-03-17T06:07:31.186Z,72.36
2023-03-17T06:08:30.225Z,73.65
2023-03-17T06:09:28.227Z,70.05
2023-03-17T06:10:28.232Z,71.74
2023-03-17T06:11:28.229Z,69.89
2023-03-17T06:12:28.189Z,75.81
2023-03-17T06:13:28.193Z,70.30
2023-03-17T06:14:28.200Z,70.77
2023-03-17T06:15:28.346Z,71.98
2023-03-17T06:16:28.174Z,72.34
2023-03-17T06:17:28.158Z,72.32
2023-03-17T06:18:28.189Z,72.84
2023-03-17T06:19:28.188Z,72.39
2023-03-17T06:20:28.198Z,73.53
2023-03-17T06:21:28.140Z,72.30
2023-03-17T06:22:28.150Z,72.94
2023-03-17T06:23:28.141Z,71.56
2023-03-17T06:24:28.120Z,74.97
2023-03-17T06:25:28.342Z,72.48
2023-03-17T06:26:28.132Z,73.45
2023-03-17T06:27:28.136Z,73.89
2023-03-17T06:28:28.193Z,74.69
2023-03-17T06:29:28.166Z,72.44
2023-03-17T06:30:28.113Z,74.03
2023-03-17T06:31:28.199Z,71.72
2023-03-17T06:32:28.298Z,72.31
2023-03-17T06:33:28.098Z,74.28
2023-03-17T06:34:28.107Z,73.45
2023-03-17T06:35:28.162Z,75.65
2023-03-17T06:36:28.065Z,73.00
2023-03-17T06:37:28.158Z,72.78
2023-03-17T06:38:28.048Z,73.36
2023-03-17T06:39:28.092Z,75.03
2023-03-17T06:40:28.135Z,71.37
2023-03-17T06:41:28.092Z,69.54
2023-03-17T06:42:28.100Z,73.17
2023-03-17T06:43:28.124Z,73.79
2023-03-17T06:44:28.011Z,72.98
2023-03-17T06:45:27.995Z,74.62
2023-03-17T06:46:28.097Z,76.51
2023-03-17T06:47:27.975Z,73.12
2023-03-17T06:48:27.974Z,78.95
2023-03-17T06:49:27.962Z,74.00
2023-03-17T06:50:27.987Z,68.62
2023-03-17T06:51:27.973Z,74.73
2023-03-17T06:52:27.956Z,76.23
2023-03-17T06:53:27.981Z,72.85
2023-03-17T06:54:27.935Z,73.76
2023-03-17T06:55:27.951Z,74.56
2023-03-17T06:56:30.466Z,73.71
2023-03-17T06:57:28.920Z,71.65
2023-03-17T06:58:27.990Z,76.41
2023-03-17T06:59:28.824Z,74.66
2023-03-17T07:00:27.951Z,73.15
2023-03-17T07:01:27.973Z,75.86
2023-03-17T07:02:27.903Z,76.10
2023-03-17T07:03:28.760Z,70.20
2023-03-17T07:04:27.911Z,71.72
2023-03-17T07:05:27.952Z,72.26
2023-03-17T07:06:27.904Z,73.76
2023-03-17T07:07:27.866Z,71.71
2023-03-17T07:08:27.851Z,72.97
2023-03-17T07:09:27.859Z,74.05
2023-03-17T07:10:27.847Z,72.59
2023-03-17T07:11:27.862Z,72.79
2023-03-17T07:12:27.815Z,76.69
2023-03-17T07:13:27.831Z,72.61
2023-03-17T07:14:27.831Z,77.96
2023-03-17T07:15:27.801Z,75.88
2023-03-17T07:16:27.839Z,72.90
2023-03-17T07:17:27.804Z,71.63
2023-03-17T07:18:27.798Z,73.42
2023-03-17T07:19:27.791Z,72.62
2023-03-17T07:20:27.793Z,70.79
2023-03-17T07:21:27.765Z,73.89
2023-03-17T07:22:27.748Z,71.42
2023-03-17T07:23:27.725Z,74.02
2023-03-17T07:24:27.732Z,72.21
2023-03-17T07:25:27.752Z,73.27
2023-03-17T07:26:27.764Z,73.87
2023-03-17T07:27:27.711Z,72.40
2023-03-17T07:28:28.351Z,73.99
2023-03-17T07:29:27.781Z,74.10
2023-03-17T07:30:27.710Z,73.74
2023-03-17T07:31:27.767Z,68.53
2023-03-17T07:32:27.717Z,71.39
2023-03-17T07:33:27.706Z,74.35
2023-03-17T07:34:27.691Z,75.36
2023-03-17T07:35:27.704Z,73.44
2023-03-17T07:36:27.681Z,72.23
2023-03-17T07:37:27.671Z,73.53
2023-03-17T07:38:27.710Z,72.28
2023-03-17T07:39:28.249Z,73.11
2023-03-17T07:40:27.641Z,73.84
2023-03-17T07:41:27.612Z,72.89
2023-03-17T07:42:27.644Z,70.12
2023-03-17T07:43:27.608Z,71.31
2023-03-17T07:44:27.639Z,69.09
2023-03-17T07:45:27.694Z,70.71
2023-03-17T07:46:27.702Z,72.38
2023-03-17T07:47:27.578Z,73.47
2023-03-17T07:48:27.888Z,68.69
2023-03-17T07:49:40.316Z,72.43
2023-03-17T07:50:29.745Z,71.21
2023-03-17T07:51:27.631Z,67.24
2023-03-17T07:52:27.585Z,74.46
2023-03-17T07:53:27.584Z,70.13
2023-03-17T07:54:27.544Z,73.12
2023-03-17T07:55:27.530Z,69.27
2023-03-17T07:56:27.520Z,69.13
2023-03-17T07:57:27.592Z,68.98
2023-03-17T07:58:27.547Z,64.68
2023-03-17T07:59:27.534Z,75.18
2023-03-17T08:00:27.573Z,72.31
2023-03-17T08:01:27.526Z,70.89
2023-03-17T08:02:27.602Z,70.19
2023-03-17T08:03:27.607Z,72.54
2023-03-17T08:04:27.509Z,68.68
2023-03-17T08:05:27.517Z,68.90
2023-03-17T08:06:27.464Z,72.38
2023-03-17T08:07:27.473Z,64.88
2023-03-17T08:08:27.512Z,70.48
2023-03-17T08:09:27.452Z,65.91
2023-03-17T08:10:27.450Z,71.17
2023-03-17T08:11:29.359Z,71.30
2023-03-17T08:12:28.412Z,69.03
2023-03-17T08:13:27.453Z,72.23
2023-03-17T08:14:27.437Z,74.32
2023-03-17T08:15:27.457Z,72.84
2023-03-17T08:16:27.414Z,62.29
2023-03-17T08:17:27.427Z,68.68
2023-03-17T08:18:27.383Z,72.64
2023-03-17T08:19:27.426Z,70.20
2023-03-17T08:20:27.368Z,68.80
2023-03-17T08:21:27.404Z,70.03
2023-03-17T08:22:27.347Z,71.37
2023-03-17T08:23:27.396Z,67.53
2023-03-17T08:24:27.341Z,69.27
2023-03-17T08:25:27.359Z,71.63
2023-03-17T08:26:27.403Z,65.49
2023-03-17T08:27:27.317Z,69.82
2023-03-17T08:28:27.328Z,71.99
2023-03-17T08:29:27.342Z,65.12
2023-03-17T08:30:27.435Z,69.49
2023-03-17T08:31:27.346Z,71.00
2023-03-17T08:32:27.406Z,71.74
2023-03-17T08:33:27.317Z,68.40
2023-03-17T08:34:27.297Z,70.00
2023-03-17T08:35:27.358Z,70.31
2023-03-17T08:36:27.256Z,68.09
2023-03-17T08:37:27.289Z,70.80
2023-03-17T08:38:27.251Z,71.49
2023-03-17T08:39:27.236Z,66.66
2023-03-17T08:40:27.248Z,71.06
2023-03-17T08:41:27.272Z,72.33
2023-03-17T08:42:27.256Z,71.06
2023-03-17T08:43:27.253Z,68.37
2023-03-17T08:44:27.237Z,70.65
2023-03-17T08:45:27.239Z,68.98
2023-03-17T08:46:27.283Z,69.77
2023-03-17T08:47:27.199Z,69.18
2023-03-17T08:48:27.209Z,67.28
2023-03-17T08:49:27.199Z,73.03
2023-03-17T08:50:27.209Z,70.28
2023-03-17T08:51:27.201Z,69.22
2023-03-17T08:52:27.145Z,67.08
2023-03-17T08:53:27.789Z,72.41
2023-03-17T08:54:27.151Z,68.46
2023-03-17T08:55:27.214Z,73.63
2023-03-17T08:56:27.158Z,73.14
2023-03-17T08:57:27.163Z,70.23
2023-03-17T08:58:27.120Z,69.79
2023-03-17T08:59:27.106Z,71.22
2023-03-17T09:00:27.153Z,68.57
2023-03-17T09:01:27.213Z,69.98
2023-03-17T09:02:27.117Z,71.23
2023-03-17T09:03:27.137Z,72.58
2023-03-17T09:04:27.108Z,70.43
2023-03-17T09:05:27.090Z,67.84
2023-03-17T09:06:27.111Z,69.40
2023-03-17T09:07:27.095Z,70.91
2023-03-17T09:08:27.101Z,71.94
2023-03-17T09:09:27.067Z,70.28
2023-03-17T09:10:27.046Z,73.31
2023-03-17T09:11:27.072Z,71.82
2023-03-17T09:12:27.063Z,68.25
2023-03-17T09:13:27.100Z,72.93
2023-03-17T09:14:27.054Z,67.68
2023-03-17T09:15:27.042Z,69.36
2023-03-17T09:16:27.189Z,70.78
2023-03-17T09:17:27.056Z,73.01
2023-03-17T09:18:27.012Z,68.27
2023-03-17T09:19:27.022Z,69.81
2023-03-17T09:20:27.050Z,67.87
2023-03-17T09:21:27.001Z,69.73
2023-03-17T09:22:27.780Z,71.35
2023-03-17T09:23:27.001Z,70.44
2023-03-17T09:24:26.986Z,69.55
2023-03-17T09:25:26.970Z,69.76
2023-03-17T09:26:26.949Z,69.64
2023-03-17T09:27:26.975Z,67.48
2023-03-17T09:28:26.925Z,70.43
2023-03-17T09:29:26.946Z,69.62
2023-03-17T09:30:26.990Z,67.55
2023-03-17T09:31:28.058Z,72.22
2023-03-17T09:32:27.994Z,65.94
2023-03-17T09:33:26.934Z,69.99
2023-03-17T09:34:26.881Z,66.68
2023-03-17T09:35:26.868Z,72.09
2023-03-17T09:36:26.915Z,66.82
2023-03-17T09:37:26.881Z,67.94
2023-03-17T09:38:26.859Z,65.73
2023-03-17T09:39:26.869Z,69.66
2023-03-17T09:40:28.518Z,68.47
2023-03-17T09:41:27.856Z,70.58
2023-03-17T09:42:26.883Z,68.88
2023-03-17T09:43:26.867Z,74.60
2023-03-17T09:44:26.862Z,69.22
2023-03-17T09:45:26.832Z,70.71
2023-03-17T09:46:26.822Z,69.90
2023-03-17T09:47:26.791Z,70.78
2023-03-17T09:48:26.788Z,72.21
2023-03-17T09:49:26.808Z,69.86
2023-03-17T09:50:26.775Z,70.47
2023-03-17T09:51:26.778Z,72.58
2023-03-17T09:52:26.817Z,64.00
2023-03-17T09:53:26.814Z,73.49
2023-03-17T09:54:26.760Z,69.77
2023-03-17T09:55:26.757Z,68.79
2023-03-17T09:56:26.741Z,67.93
2023-03-17T09:57:26.738Z,70.97
2023-03-17T09:58:26.725Z,70.45
2023-03-17T09:59:26.784Z,72.17
2023-03-17T10:00:26.772Z,72.30
2023-03-17T10:01:26.798Z,74.11
2023-03-17T10:02:26.707Z,71.58
2023-03-17T10:03:26.781Z,68.85
2023-03-17T10:04:26.702Z,66.92
2023-03-17T10:05:26.748Z,70.60
2023-03-17T10:06:26.662Z,72.10
2023-03-17T10:07:26.655Z,71.53
2023-03-17T10:08:31.757Z,70.87
2023-03-17T10:09:28.656Z,67.87
2023-03-17T10:10:26.642Z,68.66
2023-03-17T10:11:26.648Z,72.54
2023-03-17T10:12:26.606Z,71.23
2023-03-17T10:13:26.622Z,71.17
2023-03-17T10:14:26.653Z,71.47
2023-03-17T10:15:26.652Z,71.49
2023-03-17T10:16:26.669Z,69.45
2023-03-17T10:17:26.587Z,70.55
2023-03-17T10:18:26.577Z,65.66
2023-03-17T10:19:26.588Z,69.31
2023-03-17T10:20:26.600Z,69.99
2023-03-17T10:21:26.605Z,69.92
2023-03-17T10:22:26.593Z,68.94
2023-03-17T10:23:26.556Z,72.84
2023-03-17T10:24:26.526Z,69.14
2023-03-17T10:25:26.541Z,73.19
2023-03-17T10:26:26.558Z,72.47
2023-03-17T10:27:27.364Z,73.08
2023-03-17T10:28:26.520Z,70.11
2023-03-17T10:29:26.509Z,71.10
2023-03-17T10:30:26.551Z,71.44
2023-03-17T10:31:26.517Z,68.52
2023-03-17T10:32:26.551Z,73.17
2023-03-17T10:33:26.531Z,75.36
2023-03-17T10:34:26.465Z,71.02
2023-03-17T10:35:26.851Z,70.76
2023-03-17T10:36:26.458Z,67.62
2023-03-17T10:37:26.450Z,72.62
2023-03-17T10:38:26.464Z,73.35
2023-03-17T10:39:26.456Z,71.24
2023-03-17T10:40:26.448Z,73.57
2023-03-17T10:41:26.426Z,66.64
2023-03-17T10:42:26.463Z,71.84
2023-03-17T10:43:26.450Z,69.44
2023-03-17T10:44:26.441Z,71.10
2023-03-17T10:45:26.380Z,70.08
2023-03-17T10:46:26.465Z,68.65
2023-03-17T10:47:26.389Z,70.66
2023-03-17T10:48:26.386Z,70.55
2023-03-17T10:49:26.354Z,72.94
2023-03-17T10:50:26.368Z,72.44
2023-03-17T10:51:27.308Z,71.49
2023-03-17T10:52:26.346Z,72.83
2023-03-17T10:53:26.342Z,71.86
2023-03-17T10:54:26.313Z,69.72
2023-03-17T10:55:26.328Z,68.37
2023-03-17T10:56:26.309Z,69.61
2023-03-17T10:57:26.307Z,71.32
2023-03-17T10:58:26.289Z,70.29
2023-03-17T10:59:26.335Z,70.24
2023-03-17T11:00:26.285Z,73.67
2023-03-17T11:01:26.369Z,67.52
2023-03-17T11:02:26.291Z,71.76
2023-03-17T11:03:26.301Z,69.57
2023-03-17T11:04:26.264Z,71.14
2023-03-17T11:05:26.291Z,70.75
2023-03-17T11:06:26.279Z,69.73
2023-03-17T11:07:26.253Z,72.48
2023-03-17T11:08:26.241Z,72.10
2023-03-17T11:09:26.225Z,71.26
2023-03-17T11:10:26.213Z,72.92
2023-03-17T11:11:26.253Z,73.27
2023-03-17T11:12:26.227Z,66.34
2023-03-17T11:13:26.205Z,70.54
2023-03-17T11:14:26.249Z,72.85
2023-03-17T11:15:26.183Z,71.59
2023-03-17T11:16:26.210Z,69.69
2023-03-17T11:17:26.180Z,70.50
2023-03-17T11:18:26.149Z,71.11
2023-03-17T11:19:26.153Z,73.70
2023-03-17T11:20:26.152Z,69.66
2023-03-17T11:21:26.152Z,73.94
2023-03-17T11:22:26.175Z,69.98
2023-03-17T11:23:26.146Z,71.20
2023-03-17T11:24:26.129Z,75.30
2023-03-17T11:25:26.137Z,70.49
2023-03-17T11:26:26.176Z,71.03
2023-03-17T11:27:26.163Z,68.42
2023-03-17T11:28:26.119Z,70.82
2023-03-17T11:29:26.185Z,74.81
2023-03-17T11:30:26.129Z,69.27
2023-03-17T11:31:26.121Z,72.84
2023-03-17T11:32:26.232Z,72.85
2023-03-17T11:33:26.139Z,69.82
2023-03-17T11:34:26.075Z,68.72
2023-03-17T11:35:26.052Z,72.59
2023-03-17T11:36:26.054Z,68.02
2023-03-17T11:37:26.039Z,69.05
2023-03-17T11:38:26.194Z,70.20
2023-03-17T11:39:26.058Z,70.56
2023-03-17T11:40:26.111Z,73.09
2023-03-17T11:41:26.107Z,74.22
2023-03-17T11:42:26.011Z,72.99
2023-03-17T11:43:26.093Z,71.58
2023-03-17T11:44:26.019Z,72.53
2023-03-17T11:45:25.999Z,70.09
2023-03-17T11:46:26.081Z,71.25
2023-03-17T11:47:26.016Z,69.61
2023-03-17T11:48:25.977Z,75.04
2023-03-17T11:49:25.975Z,70.83
2023-03-17T11:50:25.962Z,71.80
2023-03-17T11:51:25.973Z,72.08
2023-03-17T11:52:25.973Z,72.08
2023-03-17T11:53:26.057Z,65.00
2023-03-17T11:54:25.946Z,73.24
2023-03-17T11:55:25.967Z,73.83
2023-03-17T11:56:26.271Z,73.79
2023-03-17T11:57:25.930Z,74.47
2023-03-17T11:58:25.924Z,70.82
2023-03-17T11:59:25.977Z,71.87
2023-03-17T12:00:25.891Z,74.12
2023-03-17T12:01:25.884Z,69.50
2023-03-17T12:02:25.894Z,72.99
2023-03-17T12:03:25.925Z,70.94
2023-03-17T12:04:25.985Z,71.13
2023-03-17T12:05:25.868Z,68.19
2023-03-17T12:06:25.868Z,71.83
2023-03-17T12:07:25.867Z,72.21
2023-03-17T12:08:25.847Z,72.95
2023-03-17T12:09:25.872Z,71.94
2023-03-17T12:10:25.866Z,72.74
2023-03-17T12:11:25.841Z,71.77
2023-03-17T12:12:25.866Z,73.44
2023-03-17T12:13:25.828Z,70.33
2023-03-17T12:14:25.811Z,72.95
2023-03-17T12:15:25.818Z,70.86
2023-03-17T12:16:25.822Z,72.90
2023-03-17T12:17:27.318Z,69.24
2023-03-17T12:18:26.814Z,69.90
2023-03-17T12:19:25.785Z,72.52
2023-03-17T12:20:25.818Z,67.96
2023-03-17T12:21:25.784Z,71.31
2023-03-17T12:22:25.810Z,72.82
2023-03-17T12:23:25.810Z,72.15
2023-03-17T12:24:25.780Z,71.35
2023-03-17T12:25:25.788Z,72.69
2023-03-17T12:26:25.764Z,72.49
2023-03-17T12:27:25.776Z,73.31
2023-03-17T12:28:25.776Z,72.64
2023-03-17T12:29:25.751Z,67.84
2023-03-17T12:30:25.740Z,72.14
2023-03-17T12:31:25.812Z,71.73
2023-03-17T12:32:25.782Z,72.64
2023-03-17T12:33:25.736Z,71.14
2023-03-17T12:34:25.733Z,70.95
2023-03-17T12:35:25.702Z,70.88
2023-03-17T12:36:25.681Z,73.11
2023-03-17T12:37:25.689Z,74.76
2023-03-17T12:38:25.689Z,74.50
2023-03-17T12:39:25.703Z,71.18
2023-03-17T12:40:26.270Z,74.02
2023-03-17T12:41:26.696Z,73.92
2023-03-17T12:42:25.687Z,72.34
2023-03-17T12:43:25.671Z,73.03
2023-03-17T12:44:25.694Z,72.67
2023-03-17T12:45:25.665Z,74.12
2023-03-17T12:46:25.726Z,71.78
2023-03-17T12:47:25.782Z,71.72
2023-03-17T12:48:25.622Z,72.73
2023-03-17T12:49:25.627Z,71.34
2023-03-17T12:50:25.591Z,71.24
2023-03-17T12:51:25.614Z,72.90
2023-03-17T12:52:26.368Z,74.01